Terminal Aerodrome Forecast
Issued by NWS Pendleton, OR

Current Version | Previous Version | Text Only | Print | Product List | Glossary On
Versions: 1 2 3 4 5 6 7 8 9 10 11 12 13 14 15 16 17 18 19 20 21 22 23 24 25 26 27 28 29
480
FTUS46 KPDT 171136 CCA
TAFPDT
TAF COR
KPDT 171136Z 1712/1812 12005KT 2SM BR OVC002
      TEMPO 1712/1715 1/2SM FZFG OVC001
     FM171500 14004KT 4SM BR SCT012 OVC100
     FM171800 14005KT 6SM -FZRAPL SCT018 BKN045
     FM172000 13007KT P6SM SCT022 BKN090
     FM180400 16007KT P6SM -FZRA SCT022 OVC050
     FM180900 16010KT 5SM -RA BR BKN022 OVC050=

USA.gov is the U.S. government's official web portal to all federal, state and local government web resources and services.